Station Historical Data
Daily Summary for July 3, 2017 Units:  Both    English   Metric
« Previous Day
Next Day »
Daily Weekly Monthly Yearly Custom
  High: Low: Average:
Temperature: 78.4 °F /  25.8 °C 59.5 °F /  15.3 °C 70.4 °F /  21.3 °C
Dew Point: 63.1 °F /  17.3 °C 53.7 °F /  12.1 °C 58.5 °F /  14.7 °C
Humidity: 89% 45% 67%
Wind Speed: 12.0mph /  19.3km/h - 2.7mph /  4.3km/h
Wind Gust: 15.0mph /  24.1km/h - -
Wind- - West
Pressure: 30.07 in /  1018.2 hPa 29.96 in /  1014.4 hPa -
Precipitation: 0.00 in /  0 mm    
Historical Graphs
 
 
Tabular Data for July 3, 2017
Time Temperature Dew Point Pressure Wind Wind Speed Wind Gust Humidity Rainfall Rate (Hourly)
00:04 70.6 °F /  21.4 °C 62.7 °F /  17.1 °C 29.96in /  1014.4hPa WSW 5.0mph /  8km/h 11.0mph /  17.7km/h 76% 0.00in /  0mm
00:09 70.6 °F /  21.4 °C 62.7 °F /  17.1 °C 29.96in /  1014.4hPa WSW 5.0mph /  8km/h 11.0mph /  17.7km/h 76% 0.00in /  0mm
00:14 70.6 °F /  21.4 °C 62.7 °F /  17.1 °C 29.96in /  1014.4hPa WSW 5.0mph /  8km/h 13.0mph /  20.9km/h 76% 0.00in /  0mm
00:19 70.5 °F /  21.4 °C 62.6 °F /  17 °C 29.96in /  1014.4hPa WSW 5.0mph /  8km/h 13.0mph /  20.9km/h 76% 0.00in /  0mm
00:24 70.4 °F /  21.3 °C 62.8 °F /  17.1 °C 29.96in /  1014.4hPa WSW 3.0mph /  4.8km/h 10.0mph /  16.1km/h 77% 0.00in /  0mm
00:29 70.4 °F /  21.3 °C 62.8 °F /  17.1 °C 29.97in /  1014.8hPa WSW 4.0mph /  6.4km/h 10.0mph /  16.1km/h 77% 0.00in /  0mm
00:34 70.3 °F /  21.3 °C 63.1 °F /  17.3 °C 29.97in /  1014.8hPa West 4.0mph /  6.4km/h 7.0mph /  11.3km/h 78% 0.00in /  0mm
00:39 70.2 °F /  21.2 °C 63.0 °F /  17.2 °C 29.97in /  1014.8hPa Calm   6.0mph /  9.7km/h 78% 0.00in /  0mm
00:44 70.2 °F /  21.2 °C 63.0 °F /  17.2 °C 29.97in /  1014.8hPa West 1.0mph /  1.6km/h 4.0mph /  6.4km/h 78% 0.00in /  0mm
00:49 70.1 °F /  21.2 °C 62.6 °F /  17 °C 29.97in /  1014.8hPa Calm   5.0mph /  8km/h 77% 0.00in /  0mm
00:54 70.0 °F /  21.1 °C 62.5 °F /  16.9 °C 29.97in /  1014.8hPa NW 2.0mph /  3.2km/h 4.0mph /  6.4km/h 77% 0.00in /  0mm
00:59 70.0 °F /  21.1 °C 62.1 °F /  16.7 °C 29.97in /  1014.8hPa WNW 1.0mph /  1.6km/h 4.0mph /  6.4km/h 76% 0.00in /  0mm
01:04 69.9 °F /  21.1 °C 62.4 °F /  16.9 °C 29.97in /  1014.8hPa WNW 1.0mph /  1.6km/h 4.0mph /  6.4km/h 77% 0.00in /  0mm
01:09 69.7 °F /  20.9 °C 62.2 °F /  16.8 °C 29.97in /  1014.8hPa WNW 1.0mph /  1.6km/h 5.0mph /  8km/h 77% 0.00in /  0mm
01:14 69.6 °F /  20.9 °C 62.1 °F /  16.7 °C 29.97in /  1014.8hPa WNW 1.0mph /  1.6km/h 5.0mph /  8km/h 77% 0.00in /  0mm
01:19 69.4 °F /  20.8 °C 61.9 °F /  16.6 °C 29.97in /  1014.8hPa WNW 1.0mph /  1.6km/h 5.0mph /  8km/h 77% 0.00in /  0mm
01:24 69.3 °F /  20.7 °C 61.8 °F /  16.6 °C 29.97in /  1014.8hPa NNW 1.0mph /  1.6km/h 4.0mph /  6.4km/h 77% 0.00in /  0mm
01:29 69.1 °F /  20.6 °C 61.6 °F /  16.4 °C 29.97in /  1014.8hPa NW 1.0mph /  1.6km/h 4.0mph /  6.4km/h 77% 0.00in /  0mm
01:34 68.9 °F /  20.5 °C 61.4 °F /  16.3 °C 29.97in /  1014.8hPa West 2.0mph /  3.2km/h 4.0mph /  6.4km/h 77% 0.00in /  0mm
01:39 68.8 °F /  20.4 °C 60.9 °F /  16.1 °C 29.97in /  1014.8hPa Calm   3.0mph /  4.8km/h 76% 0.00in /  0mm
01:44 68.4 °F /  20.2 °C 60.9 °F /  16.1 °C 29.97in /  1014.8hPa WNW 1.0mph /  1.6km/h 3.0mph /  4.8km/h 77% 0.00in /  0mm
01:49 68.0 °F /  20 °C 60.5 °F /  15.8 °C 29.97in /  1014.8hPa Calm   2.0mph /  3.2km/h 77% 0.00in /  0mm
01:54 68.0 °F /  20 °C 60.9 °F /  16.1 °C 29.97in /  1014.8hPa Calm   2.0mph /  3.2km/h 78% 0.00in /  0mm
01:59 67.9 °F /  19.9 °C 60.8 °F /  16 °C 29.98in /  1015.1hPa Calm   2.0mph /  3.2km/h 78% 0.00in /  0mm
02:04 67.7 °F /  19.8 °C 60.6 °F /  15.9 °C 29.98in /  1015.1hPa Calm     78% 0.00in /  0mm
02:09 67.5 °F /  19.7 °C 60.8 °F /  16 °C 29.98in /  1015.1hPa Calm     79% 0.00in /  0mm
02:14 67.2 °F /  19.6 °C 60.5 °F /  15.8 °C 29.98in /  1015.1hPa Calm     79% 0.00in /  0mm
02:19 67.0 °F /  19.4 °C 60.3 °F /  15.7 °C 29.98in /  1015.1hPa Calm     79% 0.00in /  0mm
02:24 67.1 °F /  19.5 °C 60.4 °F /  15.8 °C 29.98in /  1015.1hPa Calm     79% 0.00in /  0mm
02:29 67.2 °F /  19.6 °C 60.5 °F /  15.8 °C 29.98in /  1015.1hPa Calm     79% 0.00in /  0mm
02:34 67.0 °F /  19.4 °C 59.9 °F /  15.5 °C 29.98in /  1015.1hPa Calm     78% 0.00in /  0mm
02:39 66.9 °F /  19.4 °C 59.8 °F /  15.4 °C 29.97in /  1014.8hPa Calm     78% 0.00in /  0mm
02:44 66.7 °F /  19.3 °C 59.6 °F /  15.3 °C 29.98in /  1015.1hPa Calm   1.0mph /  1.6km/h 78% 0.00in /  0mm
02:49 66.5 °F /  19.2 °C 59.4 °F /  15.2 °C 29.97in /  1014.8hPa Calm     78% 0.00in /  0mm
02:54 66.4 °F /  19.1 °C 59.3 °F /  15.2 °C 29.97in /  1014.8hPa Calm     78% 0.00in /  0mm
02:59 66.6 °F /  19.2 °C 59.5 °F /  15.3 °C 29.98in /  1015.1hPa Calm     78% 0.00in /  0mm
03:04 66.4 °F /  19.1 °C 59.3 °F /  15.2 °C 29.98in /  1015.1hPa Calm     78% 0.00in /  0mm
03:09 66.4 °F /  19.1 °C 59.0 °F /  15 °C 29.98in /  1015.1hPa Calm     77% 0.00in /  0mm
03:14 66.4 °F /  19.1 °C 59.0 °F /  15 °C 29.97in /  1014.8hPa Calm     77% 0.00in /  0mm
03:19 66.2 °F /  19 °C 58.8 °F /  14.9 °C 29.98in /  1015.1hPa WNW 1.0mph /  1.6km/h 2.0mph /  3.2km/h 77% 0.00in /  0mm
03:24 66.0 °F /  18.9 °C 58.6 °F /  14.8 °C 29.97in /  1014.8hPa Calm   2.0mph /  3.2km/h 77% 0.00in /  0mm
03:29 65.5 °F /  18.6 °C 58.5 °F /  14.7 °C 29.97in /  1014.8hPa Calm   2.0mph /  3.2km/h 78% 0.00in /  0mm
03:34 65.5 °F /  18.6 °C 58.5 °F /  14.7 °C 29.97in /  1014.8hPa Calm   1.0mph /  1.6km/h 78% 0.00in /  0mm
03:39 65.3 °F /  18.5 °C 58.3 °F /  14.6 °C 29.97in /  1014.8hPa Calm   1.0mph /  1.6km/h 78% 0.00in /  0mm
03:44 65.2 °F /  18.4 °C 58.2 °F /  14.6 °C 29.97in /  1014.8hPa Calm     78% 0.00in /  0mm
03:49 64.8 °F /  18.2 °C 57.8 °F /  14.3 °C 29.97in /  1014.8hPa Calm     78% 0.00in /  0mm
03:54 64.4 °F /  18 °C 57.7 °F /  14.3 °C 29.97in /  1014.8hPa Calm     79% 0.00in /  0mm
03:59 64.4 °F /  18 °C 58.1 °F /  14.5 °C 29.97in /  1014.8hPa Calm     80% 0.00in /  0mm
04:04 64.4 °F /  18 °C 58.1 °F /  14.5 °C 29.98in /  1015.1hPa Calm     80% 0.00in /  0mm
04:09 64.3 °F /  17.9 °C 58.0 °F /  14.4 °C 29.97in /  1014.8hPa Calm     80% 0.00in /  0mm
04:14 63.9 °F /  17.7 °C 57.6 °F /  14.2 °C 29.98in /  1015.1hPa Calm     80% 0.00in /  0mm
04:19 63.6 °F /  17.6 °C 57.7 °F /  14.3 °C 29.98in /  1015.1hPa Calm     81% 0.00in /  0mm
04:24 63.5 °F /  17.5 °C 57.6 °F /  14.2 °C 29.98in /  1015.1hPa Calm     81% 0.00in /  0mm
04:29 63.4 °F /  17.4 °C 57.8 °F /  14.3 °C 29.98in /  1015.1hPa Calm     82% 0.00in /  0mm
04:34 63.0 °F /  17.2 °C 57.4 °F /  14.1 °C 29.98in /  1015.1hPa Calm     82% 0.00in /  0mm
04:39 62.6 °F /  17 °C 57.4 °F /  14.1 °C 29.98in /  1015.1hPa Calm     83% 0.00in /  0mm
04:44 62.3 °F /  16.8 °C 57.4 °F /  14.1 °C 29.99in /  1015.5hPa Calm     84% 0.00in /  0mm
04:49 62.0 °F /  16.7 °C 57.1 °F /  13.9 °C 29.99in /  1015.5hPa Calm     84% 0.00in /  0mm
04:54 61.9 °F /  16.6 °C 57.0 °F /  13.9 °C 29.99in /  1015.5hPa Calm     84% 0.00in /  0mm
04:59 61.8 °F /  16.6 °C 56.9 °F /  13.8 °C 29.99in /  1015.5hPa Calm     84% 0.00in /  0mm
05:04 61.6 °F /  16.4 °C 57.0 °F /  13.9 °C 29.99in /  1015.5hPa Calm     85% 0.00in /  0mm
05:09 61.2 °F /  16.2 °C 56.7 °F /  13.7 °C 29.99in /  1015.5hPa Calm     85% 0.00in /  0mm
05:14 60.9 °F /  16.1 °C 56.4 °F /  13.6 °C 29.99in /  1015.5hPa Calm     85% 0.00in /  0mm
05:19 60.8 °F /  16 °C 56.6 °F /  13.7 °C 29.99in /  1015.5hPa Calm     86% 0.00in /  0mm
05:24 60.6 °F /  15.9 °C 56.4 °F /  13.6 °C 29.99in /  1015.5hPa Calm     86% 0.00in /  0mm
05:29 60.5 °F /  15.8 °C 56.3 °F /  13.5 °C 29.99in /  1015.5hPa Calm     86% 0.00in /  0mm
05:34 60.3 °F /  15.7 °C 56.4 °F /  13.6 °C 29.99in /  1015.5hPa Calm     87% 0.00in /  0mm
05:39 60.2 °F /  15.7 °C 56.3 °F /  13.5 °C 30.00in /  1015.8hPa Calm     87% 0.00in /  0mm
05:44 60.1 °F /  15.6 °C 56.2 °F /  13.4 °C 30.00in /  1015.8hPa Calm     87% 0.00in /  0mm
05:49 59.8 °F /  15.4 °C 56.2 °F /  13.4 °C 30.00in /  1015.8hPa Calm     88% 0.00in /  0mm
05:54 59.7 °F /  15.4 °C 56.1 °F /  13.4 °C 30.00in /  1015.8hPa Calm     88% 0.00in /  0mm
05:59 59.5 °F /  15.3 °C 55.9 °F /  13.3 °C 30.00in /  1015.8hPa Calm     88% 0.00in /  0mm
06:04 59.5 °F /  15.3 °C 55.9 °F /  13.3 °C 30.00in /  1015.8hPa Calm     88% 0.00in /  0mm
06:09 59.5 °F /  15.3 °C 55.9 °F /  13.3 °C 30.01in /  1016.1hPa Calm     88% 0.00in /  0mm
06:14 59.6 °F /  15.3 °C 56.0 °F /  13.3 °C 30.01in /  1016.1hPa Calm     88% 0.00in /  0mm
06:19 59.8 °F /  15.4 °C 56.6 °F /  13.7 °C 30.01in /  1016.1hPa Calm     89% 0.00in /  0mm
06:24 60.0 °F /  15.6 °C 56.7 °F /  13.7 °C 30.01in /  1016.1hPa Calm     89% 0.00in /  0mm
06:29 60.0 °F /  15.6 °C 56.7 °F /  13.7 °C 30.01in /  1016.1hPa Calm     89% 0.00in /  0mm
06:34 60.5 °F /  15.8 °C 57.2 °F /  14 °C 30.01in /  1016.1hPa Calm     89% 0.00in /  0mm
06:39 60.8 °F /  16 °C 57.2 °F /  14 °C 30.01in /  1016.1hPa Calm     88% 0.00in /  0mm
06:44 61.3 °F /  16.3 °C 58.0 °F /  14.4 °C 30.01in /  1016.1hPa Calm     89% 0.00in /  0mm
06:49 62.1 °F /  16.7 °C 58.5 °F /  14.7 °C 30.01in /  1016.1hPa Calm     88% 0.00in /  0mm
06:54 62.7 °F /  17.1 °C 58.5 °F /  14.7 °C 30.01in /  1016.1hPa Calm     86% 0.00in /  0mm
06:59 63.3 °F /  17.4 °C 58.7 °F /  14.8 °C 30.01in /  1016.1hPa Calm     85% 0.00in /  0mm
07:04 63.8 °F /  17.7 °C 58.9 °F /  14.9 °C 30.01in /  1016.1hPa Calm     84% 0.00in /  0mm
07:09 64.3 °F /  17.9 °C 59.0 °F /  15 °C 30.02in /  1016.5hPa Calm     83% 0.00in /  0mm
07:14 64.8 °F /  18.2 °C 58.8 °F /  14.9 °C 30.02in /  1016.5hPa West 4.0mph /  6.4km/h 5.0mph /  8km/h 81% 0.00in /  0mm
07:15 64.8 °F /  18.2 °C 58.8 °F /  14.9 °C 30.02in /  1016.5hPa WNW 1.0mph /  1.6km/h 5.0mph /  8km/h 81% 0.00in /  0mm
07:24 65.5 °F /  18.6 °C 58.5 °F /  14.7 °C 30.02in /  1016.5hPa West 2.0mph /  3.2km/h 5.0mph /  8km/h 78% 0.00in /  0mm
07:29 65.7 °F /  18.7 °C 58.3 °F /  14.6 °C 30.02in /  1016.5hPa Calm   6.0mph /  9.7km/h 77% 0.00in /  0mm
07:34 66.0 °F /  18.9 °C 58.6 °F /  14.8 °C 30.02in /  1016.5hPa WNW 2.0mph /  3.2km/h 4.0mph /  6.4km/h 77% 0.00in /  0mm
07:39 66.3 °F /  19.1 °C 58.1 °F /  14.5 °C 30.02in /  1016.5hPa NW 3.0mph /  4.8km/h 6.0mph /  9.7km/h 75% 0.00in /  0mm
07:44 66.7 °F /  19.3 °C 58.5 °F /  14.7 °C 30.02in /  1016.5hPa NW 4.0mph /  6.4km/h 4.0mph /  6.4km/h 75% 0.00in /  0mm
07:49 66.9 °F /  19.4 °C 58.0 °F /  14.4 °C 30.03in /  1016.8hPa WNW 4.0mph /  6.4km/h 8.0mph /  12.9km/h 73% 0.00in /  0mm
07:54 67.1 °F /  19.5 °C 57.4 °F /  14.1 °C 30.03in /  1016.8hPa WNW 4.0mph /  6.4km/h 8.0mph /  12.9km/h 71% 0.00in /  0mm
07:59 67.6 °F /  19.8 °C 57.9 °F /  14.4 °C 30.02in /  1016.5hPa WNW 3.0mph /  4.8km/h 7.0mph /  11.3km/h 71% 0.00in /  0mm
08:04 67.9 °F /  19.9 °C 58.1 °F /  14.5 °C 30.03in /  1016.8hPa West 3.0mph /  4.8km/h 7.0mph /  11.3km/h 71% 0.00in /  0mm
08:09 68.6 °F /  20.3 °C 58.0 °F /  14.4 °C 30.03in /  1016.8hPa WNW 2.0mph /  3.2km/h 7.0mph /  11.3km/h 69% 0.00in /  0mm
08:14 69.2 °F /  20.7 °C 56.9 °F /  13.8 °C 30.03in /  1016.8hPa NW 1.0mph /  1.6km/h 4.0mph /  6.4km/h 65% 0.00in /  0mm
08:19 68.8 °F /  20.4 °C 56.1 °F /  13.4 °C 30.03in /  1016.8hPa NW 2.0mph /  3.2km/h 5.0mph /  8km/h 64% 0.00in /  0mm
08:24 69.0 °F /  20.6 °C 56.7 °F /  13.7 °C 30.03in /  1016.8hPa North 4.0mph /  6.4km/h 4.0mph /  6.4km/h 65% 0.00in /  0mm
08:29 69.3 °F /  20.7 °C 56.6 °F /  13.7 °C 30.03in /  1016.8hPa NW 2.0mph /  3.2km/h 4.0mph /  6.4km/h 64% 0.00in /  0mm
08:34 69.5 °F /  20.8 °C 56.3 °F /  13.5 °C 30.03in /  1016.8hPa WNW 3.0mph /  4.8km/h 4.0mph /  6.4km/h 63% 0.00in /  0mm
08:39 69.7 °F /  20.9 °C 57.0 °F /  13.9 °C 30.03in /  1016.8hPa WNW 4.0mph /  6.4km/h 5.0mph /  8km/h 64% 0.00in /  0mm
08:44 69.6 °F /  20.9 °C 57.3 °F /  14.1 °C 30.03in /  1016.8hPa WNW 2.0mph /  3.2km/h 6.0mph /  9.7km/h 65% 0.00in /  0mm
08:49 69.9 °F /  21.1 °C 57.2 °F /  14 °C 30.03in /  1016.8hPa NNW 3.0mph /  4.8km/h 6.0mph /  9.7km/h 64% 0.00in /  0mm
08:54 70.1 °F /  21.2 °C 56.9 °F /  13.8 °C 30.04in /  1017.2hPa WNW 3.0mph /  4.8km/h 7.0mph /  11.3km/h 63% 0.00in /  0mm
08:59 70.3 °F /  21.3 °C 56.7 °F /  13.7 °C 30.04in /  1017.2hPa WNW 4.0mph /  6.4km/h 7.0mph /  11.3km/h 62% 0.00in /  0mm
09:04 70.5 °F /  21.4 °C 57.3 °F /  14.1 °C 30.04in /  1017.2hPa WNW 3.0mph /  4.8km/h 7.0mph /  11.3km/h 63% 0.00in /  0mm
09:09 70.4 °F /  21.3 °C 57.2 °F /  14 °C 30.04in /  1017.2hPa WNW 4.0mph /  6.4km/h 6.0mph /  9.7km/h 63% 0.00in /  0mm
09:14 70.7 °F /  21.5 °C 57.0 °F /  13.9 °C 30.04in /  1017.2hPa NW 1.0mph /  1.6km/h 6.0mph /  9.7km/h 62% 0.00in /  0mm
09:19 71.0 °F /  21.7 °C 56.4 °F /  13.6 °C 30.04in /  1017.2hPa WNW 3.0mph /  4.8km/h 8.0mph /  12.9km/h 60% 0.00in /  0mm
09:24 71.0 °F /  21.7 °C 57.3 °F /  14.1 °C 30.04in /  1017.2hPa NW 3.0mph /  4.8km/h 8.0mph /  12.9km/h 62% 0.00in /  0mm
09:29 71.4 °F /  21.9 °C 57.2 °F /  14 °C 30.04in /  1017.2hPa WNW 2.0mph /  3.2km/h 8.0mph /  12.9km/h 61% 0.00in /  0mm
09:34 71.3 °F /  21.8 °C 56.2 °F /  13.4 °C 30.04in /  1017.2hPa West 2.0mph /  3.2km/h 7.0mph /  11.3km/h 59% 0.00in /  0mm
09:39 71.9 °F /  22.2 °C 58.2 °F /  14.6 °C 30.04in /  1017.2hPa West 4.0mph /  6.4km/h 7.0mph /  11.3km/h 62% 0.00in /  0mm
09:44 72.5 °F /  22.5 °C 56.4 °F /  13.6 °C 30.04in /  1017.2hPa WNW 4.0mph /  6.4km/h 6.0mph /  9.7km/h 57% 0.00in /  0mm
09:49 71.9 °F /  22.2 °C 55.8 °F /  13.2 °C 30.04in /  1017.2hPa NW 3.0mph /  4.8km/h 6.0mph /  9.7km/h 57% 0.00in /  0mm
09:54 72.1 °F /  22.3 °C 57.0 °F /  13.9 °C 30.04in /  1017.2hPa WNW 4.0mph /  6.4km/h 6.0mph /  9.7km/h 59% 0.00in /  0mm
09:59 72.4 °F /  22.4 °C 55.8 °F /  13.2 °C 30.04in /  1017.2hPa West 4.0mph /  6.4km/h 10.0mph /  16.1km/h 56% 0.00in /  0mm
10:04 72.6 °F /  22.6 °C 57.0 °F /  13.9 °C 30.03in /  1016.8hPa WSW 3.0mph /  4.8km/h 8.0mph /  12.9km/h 58% 0.00in /  0mm
10:09 72.6 °F /  22.6 °C 56.0 °F /  13.3 °C 30.03in /  1016.8hPa West 3.0mph /  4.8km/h 7.0mph /  11.3km/h 56% 0.00in /  0mm
10:14 73.1 °F /  22.8 °C 55.5 °F /  13.1 °C 30.04in /  1017.2hPa WNW 4.0mph /  6.4km/h 8.0mph /  12.9km/h 54% 0.00in /  0mm
10:19 73.0 °F /  22.8 °C 55.9 °F /  13.3 °C 30.03in /  1016.8hPa WNW 3.0mph /  4.8km/h 8.0mph /  12.9km/h 55% 0.00in /  0mm
10:24 73.4 °F /  23 °C 57.7 °F /  14.3 °C 30.03in /  1016.8hPa West 3.0mph /  4.8km/h 9.0mph /  14.5km/h 58% 0.00in /  0mm
10:29 73.7 °F /  23.2 °C 57.0 °F /  13.9 °C 30.03in /  1016.8hPa West 3.0mph /  4.8km/h 9.0mph /  14.5km/h 56% 0.00in /  0mm
10:34 72.9 °F /  22.7 °C 55.8 °F /  13.2 °C 30.03in /  1016.8hPa West 3.0mph /  4.8km/h 7.0mph /  11.3km/h 55% 0.00in /  0mm
10:39 73.7 °F /  23.2 °C 55.5 °F /  13.1 °C 30.03in /  1016.8hPa WSW 3.0mph /  4.8km/h 8.0mph /  12.9km/h 53% 0.00in /  0mm
10:44 73.9 °F /  23.3 °C 55.7 °F /  13.2 °C 30.03in /  1016.8hPa West 4.0mph /  6.4km/h 8.0mph /  12.9km/h 53% 0.00in /  0mm
10:49 73.9 °F /  23.3 °C 56.7 °F /  13.7 °C 30.03in /  1016.8hPa WNW 4.0mph /  6.4km/h 10.0mph /  16.1km/h 55% 0.00in /  0mm
10:54 74.4 °F /  23.6 °C 57.7 °F /  14.3 °C 30.03in /  1016.8hPa West 4.0mph /  6.4km/h 8.0mph /  12.9km/h 56% 0.00in /  0mm
10:59 75.0 °F /  23.9 °C 56.2 °F /  13.4 °C 30.03in /  1016.8hPa West 6.0mph /  9.7km/h 9.0mph /  14.5km/h 52% 0.00in /  0mm
11:04 75.0 °F /  23.9 °C 56.2 °F /  13.4 °C 30.03in /  1016.8hPa WNW 5.0mph /  8km/h 9.0mph /  14.5km/h 52% 0.00in /  0mm
11:09 74.8 °F /  23.8 °C 55.5 °F /  13.1 °C 30.04in /  1017.2hPa WSW 5.0mph /  8km/h 10.0mph /  16.1km/h 51% 0.00in /  0mm
11:14 74.5 °F /  23.6 °C 56.2 °F /  13.4 °C 30.04in /  1017.2hPa SW 5.0mph /  8km/h 11.0mph /  17.7km/h 53% 0.00in /  0mm
11:19 74.9 °F /  23.8 °C 54.4 °F /  12.4 °C 30.04in /  1017.2hPa West 6.0mph /  9.7km/h 11.0mph /  17.7km/h 49% 0.00in /  0mm
11:24 75.2 °F /  24 °C 54.7 °F /  12.6 °C 30.04in /  1017.2hPa West 6.0mph /  9.7km/h 14.0mph /  22.5km/h 49% 0.00in /  0mm
11:29 76.2 °F /  24.6 °C 55.6 °F /  13.1 °C 30.04in /  1017.2hPa West 6.0mph /  9.7km/h 14.0mph /  22.5km/h 49% 0.00in /  0mm
11:34 75.3 °F /  24.1 °C 54.8 °F /  12.7 °C 30.04in /  1017.2hPa West 6.0mph /  9.7km/h 13.0mph /  20.9km/h 49% 0.00in /  0mm
11:39 75.4 °F /  24.1 °C 54.3 °F /  12.4 °C 30.04in /  1017.2hPa West 6.0mph /  9.7km/h 15.0mph /  24.1km/h 48% 0.00in /  0mm
11:44 75.2 °F /  24 °C 55.3 °F /  12.9 °C 30.04in /  1017.2hPa West 4.0mph /  6.4km/h 13.0mph /  20.9km/h 50% 0.00in /  0mm
11:49 75.3 °F /  24.1 °C 55.4 °F /  13 °C 30.04in /  1017.2hPa West 7.0mph /  11.3km/h 13.0mph /  20.9km/h 50% 0.00in /  0mm
11:54 75.9 °F /  24.4 °C 55.9 °F /  13.3 °C 30.04in /  1017.2hPa West 6.0mph /  9.7km/h 12.0mph /  19.3km/h 50% 0.00in /  0mm
11:59 76.4 °F /  24.7 °C 54.7 °F /  12.6 °C 30.04in /  1017.2hPa West 7.0mph /  11.3km/h 8.0mph /  12.9km/h 47% 0.00in /  0mm
12:04 76.5 °F /  24.7 °C 57.0 °F /  13.9 °C 30.04in /  1017.2hPa SW 7.0mph /  11.3km/h 12.0mph /  19.3km/h 51% 0.00in /  0mm
12:09 76.6 °F /  24.8 °C 53.7 °F /  12.1 °C 30.04in /  1017.2hPa WNW 2.0mph /  3.2km/h 9.0mph /  14.5km/h 45% 0.00in /  0mm
12:14 76.7 °F /  24.8 °C 54.4 °F /  12.4 °C 30.04in /  1017.2hPa WNW 4.0mph /  6.4km/h 13.0mph /  20.9km/h 46% 0.00in /  0mm
12:19 77.0 °F /  25 °C 54.6 °F /  12.6 °C 30.03in /  1016.8hPa WNW 5.0mph /  8km/h 13.0mph /  20.9km/h 46% 0.00in /  0mm
12:24 77.4 °F /  25.2 °C 55.0 °F /  12.8 °C 30.03in /  1016.8hPa WNW 5.0mph /  8km/h 12.0mph /  19.3km/h 46% 0.00in /  0mm
12:29 77.0 °F /  25 °C 58.6 °F /  14.8 °C 30.03in /  1016.8hPa WNW 5.0mph /  8km/h 15.0mph /  24.1km/h 53% 0.00in /  0mm
12:34 76.9 °F /  24.9 °C 54.5 °F /  12.5 °C 30.04in /  1017.2hPa WNW 5.0mph /  8km/h 15.0mph /  24.1km/h 46% 0.00in /  0mm
12:39 77.0 °F /  25 °C 56.4 °F /  13.6 °C 30.03in /  1016.8hPa WNW 6.0mph /  9.7km/h 12.0mph /  19.3km/h 49% 0.00in /  0mm
12:44 77.5 °F /  25.3 °C 59.5 °F /  15.3 °C 30.03in /  1016.8hPa West 4.0mph /  6.4km/h 11.0mph /  17.7km/h 54% 0.00in /  0mm
12:49 76.8 °F /  24.9 °C 57.3 °F /  14.1 °C 30.03in /  1016.8hPa West 2.0mph /  3.2km/h 12.0mph /  19.3km/h 51% 0.00in /  0mm
12:54 76.1 °F /  24.5 °C 56.1 °F /  13.4 °C 30.03in /  1016.8hPa West 4.0mph /  6.4km/h 12.0mph /  19.3km/h 50% 0.00in /  0mm
12:59 76.0 °F /  24.4 °C 58.7 °F /  14.8 °C 30.03in /  1016.8hPa West 4.0mph /  6.4km/h 10.0mph /  16.1km/h 55% 0.00in /  0mm
13:04 76.9 °F /  24.9 °C 56.8 °F /  13.8 °C 30.03in /  1016.8hPa SW 5.0mph /  8km/h 10.0mph /  16.1km/h 50% 0.00in /  0mm
13:09 76.4 °F /  24.7 °C 58.5 °F /  14.7 °C 30.03in /  1016.8hPa SW 8.0mph /  12.9km/h 13.0mph /  20.9km/h 54% 0.00in /  0mm
13:14 77.1 °F /  25.1 °C 57.6 °F /  14.2 °C 30.03in /  1016.8hPa SW 6.0mph /  9.7km/h 12.0mph /  19.3km/h 51% 0.00in /  0mm
13:19 76.7 °F /  24.8 °C 57.2 °F /  14 °C 30.03in /  1016.8hPa WSW 4.0mph /  6.4km/h 14.0mph /  22.5km/h 51% 0.00in /  0mm
13:24 77.6 °F /  25.3 °C 59.1 °F /  15.1 °C 30.03in /  1016.8hPa SW 5.0mph /  8km/h 14.0mph /  22.5km/h 53% 0.00in /  0mm
13:29 77.4 °F /  25.2 °C 58.9 °F /  14.9 °C 30.03in /  1016.8hPa SW 5.0mph /  8km/h 13.0mph /  20.9km/h 53% 0.00in /  0mm
13:34 77.4 °F /  25.2 °C 58.9 °F /  14.9 °C 30.03in /  1016.8hPa SW 7.0mph /  11.3km/h 9.0mph /  14.5km/h 53% 0.00in /  0mm
13:39 77.4 °F /  25.2 °C 58.9 °F /  14.9 °C 30.03in /  1016.8hPa SW 8.0mph /  12.9km/h 11.0mph /  17.7km/h 53% 0.00in /  0mm
13:44 77.7 °F /  25.4 °C 59.2 °F /  15.1 °C 30.03in /  1016.8hPa SW 6.0mph /  9.7km/h 10.0mph /  16.1km/h 53% 0.00in /  0mm
13:49 77.1 °F /  25.1 °C 58.6 °F /  14.8 °C 30.03in /  1016.8hPa SW 7.0mph /  11.3km/h 11.0mph /  17.7km/h 53% 0.00in /  0mm
13:54 76.7 °F /  24.8 °C 59.3 °F /  15.2 °C 30.03in /  1016.8hPa SW 6.0mph /  9.7km/h 12.0mph /  19.3km/h 55% 0.00in /  0mm
13:59 77.2 °F /  25.1 °C 59.3 °F /  15.2 °C 30.03in /  1016.8hPa SW 5.0mph /  8km/h 12.0mph /  19.3km/h 54% 0.00in /  0mm
14:04 77.8 °F /  25.4 °C 59.3 °F /  15.2 °C 30.02in /  1016.5hPa SW 5.0mph /  8km/h 11.0mph /  17.7km/h 53% 0.00in /  0mm
14:09 77.3 °F /  25.2 °C 59.4 °F /  15.2 °C 30.03in /  1016.8hPa South 5.0mph /  8km/h 13.0mph /  20.9km/h 54% 0.00in /  0mm
14:14 77.5 °F /  25.3 °C 59.0 °F /  15 °C 30.02in /  1016.5hPa SSW 5.0mph /  8km/h 9.0mph /  14.5km/h 53% 0.00in /  0mm
14:19 77.6 °F /  25.3 °C 60.2 °F /  15.7 °C 30.03in /  1016.8hPa SW 5.0mph /  8km/h 9.0mph /  14.5km/h 55% 0.00in /  0mm
14:24 77.8 °F /  25.4 °C 58.8 °F /  14.9 °C 30.03in /  1016.8hPa SW 5.0mph /  8km/h 11.0mph /  17.7km/h 52% 0.00in /  0mm
14:29 77.2 °F /  25.1 °C 59.3 °F /  15.2 °C 30.02in /  1016.5hPa SW 5.0mph /  8km/h 11.0mph /  17.7km/h 54% 0.00in /  0mm
14:34 75.8 °F /  24.3 °C 58.5 °F /  14.7 °C 30.03in /  1016.8hPa SW 5.0mph /  8km/h 12.0mph /  19.3km/h 55% 0.00in /  0mm
14:39 75.9 °F /  24.4 °C 59.1 °F /  15.1 °C 30.03in /  1016.8hPa West 6.0mph /  9.7km/h 9.0mph /  14.5km/h 56% 0.00in /  0mm
14:44 76.2 °F /  24.6 °C 60.3 °F /  15.7 °C 30.02in /  1016.5hPa SW 6.0mph /  9.7km/h 11.0mph /  17.7km/h 58% 0.00in /  0mm
14:49 77.2 °F /  25.1 °C 59.3 °F /  15.2 °C 30.03in /  1016.8hPa WSW 6.0mph /  9.7km/h 11.0mph /  17.7km/h 54% 0.00in /  0mm
14:54 77.5 °F /  25.3 °C 59.5 °F /  15.3 °C 30.03in /  1016.8hPa WSW 6.0mph /  9.7km/h 12.0mph /  19.3km/h 54% 0.00in /  0mm
14:59 78.0 °F /  25.6 °C 58.9 °F /  14.9 °C 30.02in /  1016.5hPa WSW 5.0mph /  8km/h 12.0mph /  19.3km/h 52% 0.00in /  0mm
15:04 76.8 °F /  24.9 °C 58.9 °F /  14.9 °C 30.03in /  1016.8hPa WSW 5.0mph /  8km/h 12.0mph /  19.3km/h 54% 0.00in /  0mm
15:09 77.5 °F /  25.3 °C 58.5 °F /  14.7 °C 30.03in /  1016.8hPa WSW 4.0mph /  6.4km/h 9.0mph /  14.5km/h 52% 0.00in /  0mm
15:14 77.6 °F /  25.3 °C 59.6 °F /  15.3 °C 30.03in /  1016.8hPa SW 6.0mph /  9.7km/h 8.0mph /  12.9km/h 54% 0.00in /  0mm
15:19 77.4 °F /  25.2 °C 58.9 °F /  14.9 °C 30.03in /  1016.8hPa SW 6.0mph /  9.7km/h 13.0mph /  20.9km/h 53% 0.00in /  0mm
15:24 78.1 °F /  25.6 °C 59.6 °F /  15.3 °C 30.03in /  1016.8hPa SW 5.0mph /  8km/h 13.0mph /  20.9km/h 53% 0.00in /  0mm
15:29 78.4 °F /  25.8 °C 58.2 °F /  14.6 °C 30.03in /  1016.8hPa WNW 5.0mph /  8km/h 9.0mph /  14.5km/h 50% 0.00in /  0mm
15:34 77.6 °F /  25.3 °C 59.1 °F /  15.1 °C 30.02in /  1016.5hPa WSW 5.0mph /  8km/h 15.0mph /  24.1km/h 53% 0.00in /  0mm
15:39 78.2 °F /  25.7 °C 59.1 °F /  15.1 °C 30.02in /  1016.5hPa SW 10.0mph /  16.1km/h 12.0mph /  19.3km/h 52% 0.00in /  0mm
15:44 77.9 °F /  25.5 °C 59.9 °F /  15.5 °C 30.02in /  1016.5hPa WSW 3.0mph /  4.8km/h 12.0mph /  19.3km/h 54% 0.00in /  0mm
15:49 77.6 °F /  25.3 °C 59.6 °F /  15.3 °C 30.02in /  1016.5hPa SW 5.0mph /  8km/h 10.0mph /  16.1km/h 54% 0.00in /  0mm
15:54 77.6 °F /  25.3 °C 59.6 °F /  15.3 °C 30.02in /  1016.5hPa WSW 6.0mph /  9.7km/h 12.0mph /  19.3km/h 54% 0.00in /  0mm
15:59 77.2 °F /  25.1 °C 58.2 °F /  14.6 °C 30.02in /  1016.5hPa WSW 5.0mph /  8km/h 12.0mph /  19.3km/h 52% 0.00in /  0mm
16:04 76.3 °F /  24.6 °C 58.4 °F /  14.7 °C 30.02in /  1016.5hPa West 5.0mph /  8km/h 10.0mph /  16.1km/h 54% 0.00in /  0mm
16:09 76.4 °F /  24.7 °C 59.5 °F /  15.3 °C 30.02in /  1016.5hPa West 3.0mph /  4.8km/h 10.0mph /  16.1km/h 56% 0.00in /  0mm
16:14 76.8 °F /  24.9 °C 59.4 °F /  15.2 °C 30.02in /  1016.5hPa WSW 3.0mph /  4.8km/h 10.0mph /  16.1km/h 55% 0.00in /  0mm
16:19 76.9 °F /  24.9 °C 59.0 °F /  15 °C 30.02in /  1016.5hPa West 4.0mph /  6.4km/h 10.0mph /  16.1km/h 54% 0.00in /  0mm
16:24 77.1 °F /  25.1 °C 59.7 °F /  15.4 °C 30.02in /  1016.5hPa WSW 5.0mph /  8km/h 10.0mph /  16.1km/h 55% 0.00in /  0mm
16:29 76.3 °F /  24.6 °C 59.4 °F /  15.2 °C 30.02in /  1016.5hPa West 7.0mph /  11.3km/h 12.0mph /  19.3km/h 56% 0.00in /  0mm
16:34 75.6 °F /  24.2 °C 59.8 °F /  15.4 °C 30.02in /  1016.5hPa West 4.0mph /  6.4km/h 8.0mph /  12.9km/h 58% 0.00in /  0mm
16:39 75.2 °F /  24 °C 57.9 °F /  14.4 °C 30.02in /  1016.5hPa SW 12.0mph /  19.3km/h 12.0mph /  19.3km/h 55% 0.00in /  0mm
16:44 75.3 °F /  24.1 °C 58.0 °F /  14.4 °C 30.02in /  1016.5hPa SW 6.0mph /  9.7km/h 12.0mph /  19.3km/h 55% 0.00in /  0mm
16:49 75.9 °F /  24.4 °C 57.0 °F /  13.9 °C 30.02in /  1016.5hPa SW 6.0mph /  9.7km/h 12.0mph /  19.3km/h 52% 0.00in /  0mm
16:54 76.5 °F /  24.7 °C 58.6 °F /  14.8 °C 30.02in /  1016.5hPa SW 6.0mph /  9.7km/h 10.0mph /  16.1km/h 54% 0.00in /  0mm
16:59 76.6 °F /  24.8 °C 58.7 °F /  14.8 °C 30.02in /  1016.5hPa SW 6.0mph /  9.7km/h 11.0mph /  17.7km/h 54% 0.00in /  0mm
17:04 76.0 °F /  24.4 °C 57.1 °F /  13.9 °C 30.02in /  1016.5hPa SW 6.0mph /  9.7km/h 13.0mph /  20.9km/h 52% 0.00in /  0mm
17:09 76.0 °F /  24.4 °C 59.2 °F /  15.1 °C 30.02in /  1016.5hPa SW 6.0mph /  9.7km/h 13.0mph /  20.9km/h 56% 0.00in /  0mm
17:14 76.1 °F /  24.5 °C 58.2 °F /  14.6 °C 30.02in /  1016.5hPa WSW 8.0mph /  12.9km/h 8.0mph /  12.9km/h 54% 0.00in /  0mm
17:19 75.7 °F /  24.3 °C 58.4 °F /  14.7 °C 30.02in /  1016.5hPa WSW 5.0mph /  8km/h 13.0mph /  20.9km/h 55% 0.00in /  0mm
17:24 76.0 °F /  24.4 °C 58.7 °F /  14.8 °C 30.02in /  1016.5hPa WSW 3.0mph /  4.8km/h 13.0mph /  20.9km/h 55% 0.00in /  0mm
17:29 76.2 °F /  24.6 °C 60.3 °F /  15.7 °C 30.02in /  1016.5hPa SSW 8.0mph /  12.9km/h 10.0mph /  16.1km/h 58% 0.00in /  0mm
17:34 75.5 °F /  24.2 °C 59.7 °F /  15.4 °C 30.02in /  1016.5hPa SW 4.0mph /  6.4km/h 11.0mph /  17.7km/h 58% 0.00in /  0mm
17:39 75.3 °F /  24.1 °C 59.5 °F /  15.3 °C 30.02in /  1016.5hPa West 2.0mph /  3.2km/h 9.0mph /  14.5km/h 58% 0.00in /  0mm
17:44 75.4 °F /  24.1 °C 58.6 °F /  14.8 °C 30.02in /  1016.5hPa WSW 5.0mph /  8km/h 12.0mph /  19.3km/h 56% 0.00in /  0mm
17:49 75.1 °F /  23.9 °C 58.8 °F /  14.9 °C 30.02in /  1016.5hPa WSW 6.0mph /  9.7km/h 13.0mph /  20.9km/h 57% 0.00in /  0mm
17:54 75.9 °F /  24.4 °C 59.6 °F /  15.3 °C 30.02in /  1016.5hPa WSW 6.0mph /  9.7km/h 13.0mph /  20.9km/h 57% 0.00in /  0mm
17:59 75.5 °F /  24.2 °C 59.7 °F /  15.4 °C 30.02in /  1016.5hPa WSW 5.0mph /  8km/h 10.0mph /  16.1km/h 58% 0.00in /  0mm
18:04 75.1 °F /  23.9 °C 59.8 °F /  15.4 °C 30.02in /  1016.5hPa WSW 6.0mph /  9.7km/h 10.0mph /  16.1km/h 59% 0.00in /  0mm
18:09 75.4 °F /  24.1 °C 60.1 °F /  15.6 °C 30.02in /  1016.5hPa West 5.0mph /  8km/h 10.0mph /  16.1km/h 59% 0.00in /  0mm
18:14 75.1 °F /  23.9 °C 59.8 °F /  15.4 °C 30.02in /  1016.5hPa West 5.0mph /  8km/h 10.0mph /  16.1km/h 59% 0.00in /  0mm
18:19 75.1 °F /  23.9 °C 59.8 °F /  15.4 °C 30.02in /  1016.5hPa WSW 5.0mph /  8km/h 10.0mph /  16.1km/h 59% 0.00in /  0mm
18:24 75.2 °F /  24 °C 60.4 °F /  15.8 °C 30.02in /  1016.5hPa WSW 8.0mph /  12.9km/h 9.0mph /  14.5km/h 60% 0.00in /  0mm
18:29 75.2 °F /  24 °C 59.9 °F /  15.5 °C 30.02in /  1016.5hPa WNW 5.0mph /  8km/h 10.0mph /  16.1km/h 59% 0.00in /  0mm
18:34 74.7 °F /  23.7 °C 59.4 °F /  15.2 °C 30.02in /  1016.5hPa West 8.0mph /  12.9km/h 11.0mph /  17.7km/h 59% 0.00in /  0mm
18:39 74.1 °F /  23.4 °C 58.9 °F /  14.9 °C 30.02in /  1016.5hPa WNW 6.0mph /  9.7km/h 10.0mph /  16.1km/h 59% 0.00in /  0mm
18:44 73.7 °F /  23.2 °C 59.4 °F /  15.2 °C 30.02in /  1016.5hPa West 4.0mph /  6.4km/h 10.0mph /  16.1km/h 61% 0.00in /  0mm
18:49 73.1 °F /  22.8 °C 59.3 °F /  15.2 °C 30.02in /  1016.5hPa WSW 5.0mph /  8km/h 10.0mph /  16.1km/h 62% 0.00in /  0mm
18:54 72.8 °F /  22.7 °C 59.0 °F /  15 °C 30.02in /  1016.5hPa WSW 4.0mph /  6.4km/h 10.0mph /  16.1km/h 62% 0.00in /  0mm
18:59 72.5 °F /  22.5 °C 59.6 °F /  15.3 °C 30.02in /  1016.5hPa West 3.0mph /  4.8km/h 7.0mph /  11.3km/h 64% 0.00in /  0mm
19:04 73.1 °F /  22.8 °C 59.8 °F /  15.4 °C 30.02in /  1016.5hPa WSW 4.0mph /  6.4km/h 7.0mph /  11.3km/h 63% 0.00in /  0mm
19:09 73.2 °F /  22.9 °C 59.4 °F /  15.2 °C 30.02in /  1016.5hPa WSW 1.0mph /  1.6km/h 9.0mph /  14.5km/h 62% 0.00in /  0mm
19:14 73.1 °F /  22.8 °C 59.8 °F /  15.4 °C 30.02in /  1016.5hPa WSW 5.0mph /  8km/h 10.0mph /  16.1km/h 63% 0.00in /  0mm
19:19 72.9 °F /  22.7 °C 59.6 °F /  15.3 °C 30.02in /  1016.5hPa WSW 5.0mph /  8km/h 10.0mph /  16.1km/h 63% 0.00in /  0mm
19:24 73.0 °F /  22.8 °C 59.2 °F /  15.1 °C 30.02in /  1016.5hPa WSW 4.0mph /  6.4km/h 7.0mph /  11.3km/h 62% 0.00in /  0mm
19:29 72.8 °F /  22.7 °C 59.0 °F /  15 °C 30.02in /  1016.5hPa WSW 4.0mph /  6.4km/h 9.0mph /  14.5km/h 62% 0.00in /  0mm
19:34 72.7 °F /  22.6 °C 59.4 °F /  15.2 °C 30.03in /  1016.8hPa WSW 4.0mph /  6.4km/h 9.0mph /  14.5km/h 63% 0.00in /  0mm
19:39 72.4 °F /  22.4 °C 59.1 °F /  15.1 °C 30.02in /  1016.5hPa WSW 4.0mph /  6.4km/h 9.0mph /  14.5km/h 63% 0.00in /  0mm
19:44 72.4 °F /  22.4 °C 59.5 °F /  15.3 °C 30.02in /  1016.5hPa West 6.0mph /  9.7km/h 8.0mph /  12.9km/h 64% 0.00in /  0mm
19:49 72.2 °F /  22.3 °C 59.3 °F /  15.2 °C 30.02in /  1016.5hPa SW 4.0mph /  6.4km/h 9.0mph /  14.5km/h 64% 0.00in /  0mm
19:54 72.1 °F /  22.3 °C 59.2 °F /  15.1 °C 30.02in /  1016.5hPa Calm   6.0mph /  9.7km/h 64% 0.00in /  0mm
20:04 72.1 °F /  22.3 °C 59.7 °F /  15.4 °C 30.03in /  1016.8hPa WSW 1.0mph /  1.6km/h 6.0mph /  9.7km/h 65% 0.00in /  0mm
20:09 72.0 °F /  22.2 °C 59.2 °F /  15.1 °C 30.03in /  1016.8hPa WSW 6.0mph /  9.7km/h 6.0mph /  9.7km/h 64% 0.00in /  0mm
20:14 71.8 °F /  22.1 °C 59.0 °F /  15 °C 30.03in /  1016.8hPa SW 2.0mph /  3.2km/h 6.0mph /  9.7km/h 64% 0.00in /  0mm
20:19 71.6 °F /  22 °C 58.8 °F /  14.9 °C 30.03in /  1016.8hPa SW 2.0mph /  3.2km/h 7.0mph /  11.3km/h 64% 0.00in /  0mm
20:24 71.4 °F /  21.9 °C 59.0 °F /  15 °C 30.03in /  1016.8hPa SW 3.0mph /  4.8km/h 7.0mph /  11.3km/h 65% 0.00in /  0mm
20:29 71.3 °F /  21.8 °C 59.4 °F /  15.2 °C 30.03in /  1016.8hPa SW 3.0mph /  4.8km/h 5.0mph /  8km/h 66% 0.00in /  0mm
20:34 71.2 °F /  21.8 °C 59.3 °F /  15.2 °C 30.03in /  1016.8hPa WSW 3.0mph /  4.8km/h 5.0mph /  8km/h 66% 0.00in /  0mm
20:39 71.0 °F /  21.7 °C 59.1 °F /  15.1 °C 30.03in /  1016.8hPa Calm   5.0mph /  8km/h 66% 0.00in /  0mm
20:44 70.8 °F /  21.6 °C 59.3 °F /  15.2 °C 30.04in /  1017.2hPa West 1.0mph /  1.6km/h 2.0mph /  3.2km/h 67% 0.00in /  0mm
20:49 70.7 °F /  21.5 °C 59.2 °F /  15.1 °C 30.04in /  1017.2hPa WSW 1.0mph /  1.6km/h 3.0mph /  4.8km/h 67% 0.00in /  0mm
20:54 70.6 °F /  21.4 °C 59.1 °F /  15.1 °C 30.04in /  1017.2hPa WSW 2.0mph /  3.2km/h 4.0mph /  6.4km/h 67% 0.00in /  0mm
20:59 70.5 °F /  21.4 °C 59.0 °F /  15 °C 30.04in /  1017.2hPa WSW 2.0mph /  3.2km/h 5.0mph /  8km/h 67% 0.00in /  0mm
21:04 70.4 °F /  21.3 °C 59.3 °F /  15.2 °C 30.04in /  1017.2hPa WSW 3.0mph /  4.8km/h 5.0mph /  8km/h 68% 0.00in /  0mm
21:09 70.2 °F /  21.2 °C 59.1 °F /  15.1 °C 30.04in /  1017.2hPa WSW 2.0mph /  3.2km/h 4.0mph /  6.4km/h 68% 0.00in /  0mm
21:14 69.9 °F /  21.1 °C 59.3 °F /  15.2 °C 30.04in /  1017.2hPa Calm   4.0mph /  6.4km/h 69% 0.00in /  0mm
21:19 69.6 °F /  20.9 °C 59.4 °F /  15.2 °C 30.04in /  1017.2hPa WSW 1.0mph /  1.6km/h 4.0mph /  6.4km/h 70% 0.00in /  0mm
21:24 69.4 °F /  20.8 °C 59.2 °F /  15.1 °C 30.04in /  1017.2hPa WSW 1.0mph /  1.6km/h 3.0mph /  4.8km/h 70% 0.00in /  0mm
21:29 69.3 °F /  20.7 °C 59.1 °F /  15.1 °C 30.05in /  1017.5hPa WSW 1.0mph /  1.6km/h 3.0mph /  4.8km/h 70% 0.00in /  0mm
21:34 68.9 °F /  20.5 °C 59.1 °F /  15.1 °C 30.05in /  1017.5hPa WSW 1.0mph /  1.6km/h 2.0mph /  3.2km/h 71% 0.00in /  0mm
21:39 68.6 °F /  20.3 °C 59.2 °F /  15.1 °C 30.05in /  1017.5hPa Calm   3.0mph /  4.8km/h 72% 0.00in /  0mm
21:44 68.5 °F /  20.3 °C 59.1 °F /  15.1 °C 30.05in /  1017.5hPa Calm   2.0mph /  3.2km/h 72% 0.00in /  0mm
21:49 68.2 °F /  20.1 °C 58.8 °F /  14.9 °C 30.05in /  1017.5hPa Calm   2.0mph /  3.2km/h 72% 0.00in /  0mm
21:54 67.9 °F /  19.9 °C 58.9 °F /  14.9 °C 30.05in /  1017.5hPa Calm     73% 0.00in /  0mm
21:59 67.7 °F /  19.8 °C 59.1 °F /  15.1 °C 30.05in /  1017.5hPa Calm     74% 0.00in /  0mm
22:04 67.5 °F /  19.7 °C 58.9 °F /  14.9 °C 30.06in /  1017.8hPa Calm     74% 0.00in /  0mm
22:09 67.2 °F /  19.6 °C 59.0 °F /  15 °C 30.06in /  1017.8hPa Calm     75% 0.00in /  0mm
22:14 67.2 °F /  19.6 °C 59.0 °F /  15 °C 30.06in /  1017.8hPa Calm     75% 0.00in /  0mm
22:19 67.0 °F /  19.4 °C 58.8 °F /  14.9 °C 30.06in /  1017.8hPa Calm     75% 0.00in /  0mm
22:24 66.8 °F /  19.3 °C 59.0 °F /  15 °C 30.06in /  1017.8hPa Calm     76% 0.00in /  0mm
22:29 66.6 °F /  19.2 °C 58.8 °F /  14.9 °C 30.06in /  1017.8hPa Calm     76% 0.00in /  0mm
22:34 66.5 °F /  19.2 °C 58.7 °F /  14.8 °C 30.06in /  1017.8hPa Calm     76% 0.00in /  0mm
22:39 66.4 °F /  19.1 °C 59.0 °F /  15 °C 30.06in /  1017.8hPa Calm     77% 0.00in /  0mm
22:44 66.2 °F /  19 °C 58.8 °F /  14.9 °C 30.06in /  1017.8hPa Calm     77% 0.00in /  0mm
22:49 66.0 °F /  18.9 °C 58.6 °F /  14.8 °C 30.06in /  1017.8hPa Calm     77% 0.00in /  0mm
22:54 65.8 °F /  18.8 °C 58.7 °F /  14.8 °C 30.06in /  1017.8hPa Calm     78% 0.00in /  0mm
22:59 65.8 °F /  18.8 °C 58.7 °F /  14.8 °C 30.06in /  1017.8hPa Calm     78% 0.00in /  0mm
23:04 65.6 °F /  18.7 °C 58.6 °F /  14.8 °C 30.06in /  1017.8hPa Calm     78% 0.00in /  0mm
23:09 65.3 °F /  18.5 °C 58.6 °F /  14.8 °C 30.06in /  1017.8hPa Calm     79% 0.00in /  0mm
23:14 65.3 °F /  18.5 °C 58.6 °F /  14.8 °C 30.06in /  1017.8hPa Calm     79% 0.00in /  0mm
23:19 64.9 °F /  18.3 °C 58.2 °F /  14.6 °C 30.06in /  1017.8hPa Calm     79% 0.00in /  0mm
23:24 64.7 °F /  18.2 °C 58.4 °F /  14.7 °C 30.06in /  1017.8hPa Calm     80% 0.00in /  0mm
23:29 64.6 °F /  18.1 °C 58.3 °F /  14.6 °C 30.06in /  1017.8hPa Calm     80% 0.00in /  0mm
23:34 64.5 °F /  18.1 °C 58.5 °F /  14.7 °C 30.06in /  1017.8hPa Calm     81% 0.00in /  0mm
23:39 64.3 °F /  17.9 °C 58.7 °F /  14.8 °C 30.07in /  1018.2hPa Calm     82% 0.00in /  0mm
23:44 64.2 °F /  17.9 °C 58.6 °F /  14.8 °C 30.07in /  1018.2hPa Calm     82% 0.00in /  0mm
23:49 64.1 °F /  17.8 °C 58.8 °F /  14.9 °C 30.06in /  1017.8hPa Calm     83% 0.00in /  0mm
23:54 63.9 °F /  17.7 °C 58.6 °F /  14.8 °C 30.06in /  1017.8hPa Calm     83% 0.00in /  0mm
23:59 63.7 °F /  17.6 °C 58.4 °F /  14.7 °C 30.06in /  1017.8hPa Calm     83% 0.00in /  0mm
Buffalo, New York, USA
Compliments of Weather Underground - 2.5 mb